KDUJ/DUJ METAR and TAF weather

Enter ICAO airport designator
Station Type Date Time Source
KDUJ METAR 2022/08/16 17:53 UTC NOAA

KDUJ 161753Z AUTO 00000KT 10SM FEW095 23/15 A3008 RMK AO2 SLP177 T02280150 10228 20156 58002


Station Type Date Time Source
KDUJ Decoded METAR 2022/08/16 17:53 UTC NOAA

DU BOIS-JEFFERSON COUNTY, PA, United States (KDUJ) 41-11N 078-53W
Aug 16, 2022 - 01:53 PM EDT / 2022.08.16 1753 UTC
Wind: Calm:0
Visibility: 10 mile(s):0
Sky conditions: mostly clear
Temperature: 73.0 F (22.8 C)
Dew Point: 59.0 F (15.0 C)
Relative Humidity: 61%
Pressure (altimeter): 30.08 in. Hg (1018 hPa)
Pressure tendency: 0.01 inches (0.2 hPa) lower than three hours ago
ob: KDUJ 161753Z AUTO 00000KT 10SM FEW095 23/15 A3008 RMK AO2 SLP177 T02280150 10228 20156 58002
cycle: 18

Station Type Date Time Source
KDUJ TAF 2022/08/16 18:22 UTC NOAA

TAF KDUJ 161720Z 1618/1718 06005KT P6SM VCTS BKN070CB
FM170000 07004KT P6SM BKN080
FM170800 VRB02KT 3SM BR BKN020
TEMPO 1709/1712 1SM BR BKN008
FM171400 05004KT P6SM VCSH BKN040

Example: see airport list